• pl
  • eng

Awiacja
WIADOMOŚCI
ostatnia aktualizacja: 06.03.2019 14:41
Szanowni Państwo,

uprzejmie informujemy, że z dniem 01.01.2019 roku z obszaru MOLC zostało wyłączone BPM we Wrocławiu. Jego zadania zostały przejęte przez BPM w Krakowie.

TAF FT 07:30 24.04.2019
  • WIND
  • SIGNIFICANT EURO
  • SIGNIFICANT
  • SIGMET
  • AIRMET
  • TAF FC
  • TAF FT
  • METAR GG30
  • METAR GG00


TAF EPBY 240530Z 2406/2506 12015KT CAVOK
TEMPO 2406/2416 15018G31KT=

TAF EPGD 240530Z 2406/2506 12016KT CAVOK
TEMPO 2407/2416 16018G34KT
BECMG 2417/2419 12006KT=

TAF EPKK 240530Z 2406/2506 10012KT CAVOK
TEMPO 2408/2416 10015G25KT SCT040CB=

TAF EPKT 240530Z 2406/2506 12014KT CAVOK
TEMPO 2408/2416 14017G27KT SCT040CB=

TAF EPLL 240530Z 2406/2506 12013KT CAVOK
TEMPO 2407/2417 14018G32KT BKN045CB=

TAF EPMO 240530Z 2406/2506 10010KT CAVOK
BECMG 2406/2408 16016KT
TEMPO 2407/2418 16020G32KT=

TAF EPPO 240530Z 2406/2506 13015KT CAVOK
BECMG 2406/2408 15020G32KT
BECMG 2415/2418 14012KT=

TAF EPRZ 240530Z 2406/2506 10015KT CAVOK
TEMPO 2408/2416 10018G28KT SCT040CB=

TAF EPSC 240530Z 2406/2506 12014KT CAVOK
PROB40 TEMPO 2408/2415 14016G26KT
BECMG 2418/2420 11004KT=

TAF EPWA 240530Z 2406/2506 12014KT CAVOK
TEMPO 2407/2418 15020G32KT=

TAF EPWR 240530Z 2406/2506 13016KT 9999 SCT045
BECMG 2406/2408 16020G30KT
BECMG 2415/2418 15012KT=
Awiacja.imgw.pl jest pogodowym serwisem informacyjnym
Instytutu Meteorologii i Gospodarki Wodnej Państwowego Instytutu Badawczego.
Copyright IMGW PIB 2009-2011© Wszelkie prawa zastrzeżone.